createdAt,value
2023-07-14T00:01:54.919Z,100535.47
2023-07-14T00:06:54.061Z,100542.66
2023-07-14T00:11:53.579Z,100540.47
2023-07-14T00:16:54.274Z,100539.75
2023-07-14T00:21:53.448Z,100539.75
2023-07-14T00:26:58.742Z,100543.84
2023-07-14T00:32:01.108Z,100545.88
2023-07-14T00:37:01.616Z,100543.34
2023-07-14T00:42:02.510Z,100551.88
2023-07-14T00:47:02.596Z,100550.69
2023-07-14T00:52:06.568Z,100556.03
2023-07-14T00:57:05.563Z,100551.09
2023-07-14T01:02:21.146Z,100550.16
2023-07-14T01:07:27.258Z,100546.38
2023-07-14T01:12:29.969Z,100544.28
2023-07-14T01:17:30.324Z,100538.84
2023-07-14T01:23:04.945Z,100541.59
2023-07-14T01:28:06.224Z,100541.63
2023-07-14T01:33:10.103Z,100527.94
2023-07-14T01:38:10.821Z,100532.88
2023-07-14T01:43:11.867Z,100539.22
2023-07-14T01:48:18.557Z,100532.31
2023-07-14T01:53:36.172Z,100532.22
2023-07-14T01:58:48.234Z,100538.13
2023-07-14T02:03:53.736Z,100551.91
2023-07-14T02:08:53.028Z,100543.72
2023-07-14T02:13:54.680Z,100546.47
2023-07-14T02:18:55.181Z,100550.84
2023-07-14T02:23:55.328Z,100550.44
2023-07-14T02:28:58.205Z,100548.81
2023-07-14T02:33:57.240Z,100556.34
2023-07-14T02:38:57.008Z,100560.63
2023-07-14T02:44:02.547Z,100563.94
2023-07-14T02:49:02.099Z,100561.78
2023-07-14T02:54:01.068Z,100564.00
2023-07-14T02:59:00.713Z,100564.72
2023-07-14T03:04:00.977Z,100570.75
2023-07-14T03:09:00.345Z,100558.09
2023-07-14T03:13:59.218Z,100558.88
2023-07-14T03:18:58.609Z,100567.56
2023-07-14T03:23:59.893Z,100560.19
2023-07-14T03:28:58.874Z,100548.28
2023-07-14T03:33:57.717Z,100550.53
2023-07-14T03:39:20.368Z,100567.97
2023-07-14T03:44:20.286Z,100562.91
2023-07-14T03:49:19.325Z,100564.56
2023-07-14T03:54:20.167Z,100573.78
2023-07-14T03:59:19.276Z,100566.09
2023-07-14T04:04:20.343Z,100560.78
2023-07-14T04:09:19.373Z,100559.94
2023-07-14T04:14:18.476Z,100548.03
2023-07-14T04:19:17.552Z,100555.22
2023-07-14T04:24:16.535Z,100552.84
2023-07-14T04:29:15.922Z,100569.69
2023-07-14T04:34:16.161Z,100567.69
2023-07-14T04:39:16.753Z,100564.63
2023-07-14T04:44:16.847Z,100577.69
2023-07-14T04:49:18.634Z,100573.03
2023-07-14T04:54:17.644Z,100572.78
2023-07-14T04:59:16.524Z,100564.84
2023-07-14T05:04:15.354Z,100566.28
2023-07-14T05:09:14.271Z,100570.81
2023-07-14T05:14:13.163Z,100573.88
2023-07-14T05:19:11.979Z,100581.34
2023-07-14T05:24:11.117Z,100577.88
2023-07-14T05:29:11.516Z,100579.81
2023-07-14T05:34:10.673Z,100574.31
2023-07-14T05:39:10.367Z,100569.81
2023-07-14T05:44:09.169Z,100576.69
2023-07-14T05:49:08.028Z,100570.75
2023-07-14T05:54:07.480Z,100577.78
2023-07-14T05:59:06.392Z,100572.31
2023-07-14T06:04:06.708Z,100575.22
2023-07-14T06:09:06.334Z,100573.81
2023-07-14T06:14:05.409Z,100566.06
2023-07-14T06:19:04.551Z,100568.56
2023-07-14T06:24:03.599Z,100557.81
2023-07-14T06:29:02.395Z,100555.56
2023-07-14T06:34:01.536Z,100555.84
2023-07-14T06:39:01.540Z,100550.06
2023-07-14T06:44:15.638Z,100553.09
2023-07-14T06:49:22.049Z,100544.81
2023-07-14T06:54:22.370Z,100557.13
2023-07-14T06:59:21.954Z,100542.59
2023-07-14T07:04:20.916Z,100536.56
2023-07-14T07:09:20.430Z,100537.59
2023-07-14T07:14:19.446Z,100538.38
2023-07-14T07:19:18.370Z,100531.44
2023-07-14T07:24:17.777Z,100525.41
2023-07-14T07:29:16.847Z,100509.31
2023-07-14T07:34:15.837Z,100513.94
2023-07-14T07:39:15.827Z,100508.72
2023-07-14T07:44:14.608Z,100514.25
2023-07-14T07:49:14.070Z,100508.56
2023-07-14T07:54:13.115Z,100501.69
2023-07-14T07:59:18.060Z,100506.81
2023-07-14T08:04:18.385Z,100504.25
2023-07-14T08:09:17.412Z,100498.28
2023-07-14T08:14:21.601Z,100500.75
2023-07-14T08:19:20.615Z,100495.16
2023-07-14T08:24:21.480Z,100492.66
2023-07-14T08:29:21.331Z,100480.22
2023-07-14T08:34:20.176Z,100483.03
2023-07-14T08:39:19.102Z,100476.28
2023-07-14T08:44:40.194Z,100473.03
2023-07-14T08:49:46.891Z,100479.13
2023-07-14T08:54:50.693Z,100473.50
2023-07-14T08:59:54.490Z,100463.78
2023-07-14T09:05:03.456Z,100470.63
2023-07-14T09:10:02.391Z,100463.22
2023-07-14T09:15:07.093Z,100456.53
2023-07-14T09:20:14.843Z,100456.41
2023-07-14T09:25:31.495Z,100448.41
2023-07-14T09:30:31.984Z,100452.50
2023-07-14T09:35:31.439Z,100438.28
2023-07-14T09:40:34.898Z,100433.81
2023-07-14T09:45:39.716Z,100435.84
2023-07-14T09:50:46.746Z,100431.34
2023-07-14T09:55:53.654Z,100427.41
2023-07-14T10:00:55.596Z,100420.97
2023-07-14T10:05:57.101Z,100409.41
2023-07-14T10:10:58.135Z,100400.84
2023-07-14T10:16:05.076Z,100404.41
2023-07-14T10:26:11.489Z,100394.56
2023-07-14T10:31:30.530Z,100374.78
2023-07-14T10:36:36.051Z,100375.28
2023-07-14T10:41:37.219Z,100363.81
2023-07-14T10:46:44.656Z,100357.47
2023-07-14T10:51:54.252Z,100360.16
2023-07-14T10:57:25.271Z,100342.81
2023-07-14T11:02:36.602Z,100345.84
2023-07-14T11:07:36.043Z,100335.72
2023-07-14T11:12:45.663Z,100329.81
2023-07-14T11:18:09.376Z,100331.88
2023-07-14T11:23:28.717Z,100314.41
2023-07-14T11:28:51.120Z,100309.44
2023-07-14T11:34:25.796Z,100304.09
2023-07-14T11:39:41.808Z,100303.00
2023-07-14T11:44:41.276Z,100287.06
2023-07-14T11:49:40.290Z,100288.59
2023-07-14T11:54:44.069Z,100290.09
2023-07-14T12:00:23.746Z,100280.34
2023-07-14T12:05:31.573Z,100282.28
2023-07-14T12:10:39.568Z,100276.00
2023-07-14T12:15:42.487Z,100270.28
2023-07-14T12:20:42.947Z,100258.78
2023-07-14T12:25:48.444Z,100260.31
2023-07-14T12:30:52.323Z,100255.03
2023-07-14T12:35:52.600Z,100254.22
2023-07-14T12:40:55.376Z,100244.25
2023-07-14T12:45:56.171Z,100244.38
2023-07-14T12:50:57.011Z,100232.31
2023-07-14T12:55:55.885Z,100231.78
2023-07-14T13:00:56.494Z,100220.78
2023-07-14T13:05:55.965Z,100217.16
2023-07-14T13:10:57.116Z,100203.56
2023-07-14T13:16:01.321Z,100210.56
2023-07-14T13:21:02.722Z,100204.47
2023-07-14T13:26:04.528Z,100194.34
2023-07-14T13:31:23.279Z,100184.19
2023-07-14T13:36:25.238Z,100195.72
2023-07-14T13:41:28.988Z,100183.53
2023-07-14T13:46:29.437Z,100181.63
2023-07-14T13:51:30.877Z,100179.25
2023-07-14T13:56:29.684Z,100178.69
2023-07-14T14:01:29.111Z,100161.84
2023-07-14T14:06:29.639Z,100163.75
2023-07-14T14:11:28.806Z,100148.25
2023-07-14T14:16:27.667Z,100153.22
2023-07-14T14:21:26.899Z,100151.44
2023-07-14T14:26:25.878Z,100139.59
2023-07-14T14:31:25.111Z,100132.63
2023-07-14T14:36:24.272Z,100125.81
2023-07-14T14:41:29.344Z,100128.22
2023-07-14T14:46:28.771Z,100124.03
2023-07-14T14:51:27.658Z,100119.31
2023-07-14T14:56:30.492Z,100106.00
2023-07-14T15:01:35.904Z,100098.22
2023-07-14T15:06:35.186Z,100098.66
2023-07-14T15:11:34.663Z,100090.91
2023-07-14T15:16:33.680Z,100097.50
2023-07-14T15:21:32.659Z,100092.25
2023-07-14T15:26:36.956Z,100082.38
2023-07-14T15:31:44.461Z,100082.81
2023-07-14T15:36:47.243Z,100077.16
2023-07-14T15:41:46.246Z,100080.34
2023-07-14T15:46:45.385Z,100066.41
2023-07-14T15:51:45.951Z,100064.09
2023-07-14T15:56:44.889Z,100060.53
2023-07-14T16:01:44.332Z,100051.06
2023-07-14T16:06:43.293Z,100045.84
2023-07-14T16:11:42.243Z,100045.50
2023-07-14T16:16:41.972Z,100035.84
2023-07-14T16:21:47.099Z,100040.34
2023-07-14T16:26:47.273Z,100038.69
2023-07-14T16:31:48.016Z,100030.19
2023-07-14T16:36:47.743Z,100022.25
2023-07-14T16:41:46.734Z,100020.38
2023-07-14T16:46:57.946Z,100011.25
2023-07-14T16:51:57.071Z,99999.84
2023-07-14T16:56:56.641Z,99999.13
2023-07-14T17:01:56.732Z,99979.69
2023-07-14T17:06:56.451Z,99981.94
2023-07-14T17:11:57.046Z,99982.69
2023-07-14T17:16:55.939Z,99968.44
2023-07-14T17:21:59.760Z,99960.44
2023-07-14T17:27:01.841Z,99957.06
2023-07-14T17:32:03.982Z,99940.44
2023-07-14T17:37:07.225Z,99933.44
2023-07-14T17:42:06.207Z,99938.94
2023-07-14T17:47:05.489Z,99946.94
2023-07-14T17:52:04.736Z,99926.88
2023-07-14T17:57:12.550Z,99935.47
2023-07-14T18:02:21.181Z,99935.97
2023-07-14T18:07:21.924Z,99935.53
2023-07-14T18:12:22.466Z,99930.72
2023-07-14T18:17:21.475Z,99925.53
2023-07-14T18:22:29.793Z,99924.75
2023-07-14T18:27:30.772Z,99927.38
2023-07-14T18:32:29.757Z,99912.34
2023-07-14T18:37:29.863Z,99908.41
2023-07-14T18:42:28.995Z,99915.19
2023-07-14T18:47:27.989Z,99911.53
2023-07-14T18:52:26.857Z,99908.13
2023-07-14T18:57:25.676Z,99922.28
2023-07-14T19:02:28.676Z,99928.59
2023-07-14T19:07:28.599Z,99917.84
2023-07-14T19:12:27.608Z,99927.19
2023-07-14T19:17:29.606Z,99925.63
2023-07-14T19:22:30.825Z,99929.25
2023-07-14T19:27:29.931Z,99935.00
2023-07-14T19:32:31.293Z,99939.06
2023-07-14T19:37:30.379Z,99941.75
2023-07-14T19:42:29.279Z,99951.63
2023-07-14T19:47:28.158Z,99960.78
2023-07-14T19:52:27.096Z,99954.50
2023-07-14T19:57:25.997Z,99961.28
2023-07-14T20:02:34.590Z,99971.50
2023-07-14T20:07:33.521Z,99958.06
2023-07-14T20:12:32.333Z,99969.81
2023-07-14T20:17:31.266Z,99954.72
2023-07-14T20:22:30.763Z,99960.53
2023-07-14T20:27:29.855Z,99965.72
2023-07-14T20:32:28.862Z,99962.81
2023-07-14T20:37:28.407Z,99971.75
2023-07-14T20:42:27.420Z,99961.03
2023-07-14T20:47:26.522Z,99955.53
2023-07-14T20:52:25.387Z,99961.88
2023-07-14T20:57:24.914Z,99951.56
2023-07-14T21:02:26.720Z,99960.53
2023-07-14T21:07:28.486Z,99956.63
2023-07-14T21:12:27.679Z,99961.88
2023-07-14T21:17:27.532Z,99958.28
2023-07-14T21:22:29.466Z,99964.03
2023-07-14T21:27:29.497Z,99956.38
2023-07-14T21:32:33.323Z,99957.06
2023-07-14T21:37:33.934Z,99959.91
2023-07-14T21:42:32.877Z,99951.34
2023-07-14T21:47:31.826Z,99954.00
2023-07-14T21:52:30.906Z,99954.13
2023-07-14T21:57:29.759Z,99947.34
2023-07-14T22:02:28.665Z,99951.56
2023-07-14T22:07:27.730Z,99952.81
2023-07-14T22:12:26.682Z,99947.06
2023-07-14T22:17:25.496Z,99949.59
2023-07-14T22:22:24.450Z,99957.88
2023-07-14T22:27:23.410Z,99946.25
2023-07-14T22:32:22.252Z,99954.59
2023-07-14T22:37:21.055Z,99956.19
2023-07-14T22:42:24.026Z,99940.75
2023-07-14T22:47:24.494Z,99940.88
2023-07-14T22:52:23.571Z,99936.03
2023-07-14T22:57:22.454Z,99935.44
2023-07-14T23:02:21.385Z,99937.81
2023-07-14T23:07:20.385Z,99928.94
2023-07-14T23:12:19.466Z,99923.16
2023-07-14T23:17:18.146Z,99920.31
2023-07-14T23:22:18.721Z,99927.06
2023-07-14T23:27:17.448Z,99914.16
2023-07-14T23:32:16.306Z,99909.09
2023-07-14T23:37:15.164Z,99910.97
2023-07-14T23:42:14.100Z,99907.22
2023-07-14T23:47:13.285Z,99902.59
2023-07-14T23:52:12.123Z,99888.41
2023-07-14T23:57:11.409Z,99891.81
